Time;durP1;ratioP1;P1;durP2;ratioP2;P2;SDS_P1;SDS_P2;PMS_P1;PMS_P2;Temp;Humidity;BMP_temperature;BMP_pressure;BME280_temperature;BME280_humidity;BME280_pressure;Samples;Min_cycle;Max_cycle;Signal;HPM_P1;HPM_P2
2021/09/21 00:00:58;;;;;;;2.58;1.60;;;;;;;;;;6205065;28;20081;-74
2021/09/21 00:04:00;;;;;;;2.20;1.80;;;;;;;;;;6208801;28;20722;-74
2021/09/21 00:07:02;;;;;;;3.80;1.65;;;;;;;;;;6202996;28;20645;-74
2021/09/21 00:10:05;;;;;;;2.67;1.70;;;;;;;;;;6211963;28;20393;-74
2021/09/21 00:13:06;;;;;;;3.92;1.80;;;;;;;;;;6229209;28;20520;-74
2021/09/21 00:16:09;;;;;;;3.47;1.92;;;;;;;;;;6227108;28;20057;-74
2021/09/21 00:19:11;;;;;;;2.80;1.80;;;;;;;;;;6234296;28;20139;-74
2021/09/21 00:22:13;;;;;;;4.25;2.13;;;;;;;;;;6228945;28;20710;-74
2021/09/21 00:25:15;;;;;;;2.75;1.80;;;;;;;;;;6232879;28;20057;-74
2021/09/21 00:28:17;;;;;;;3.88;2.50;;;;;;;;;;6237558;28;20053;-74
2021/09/21 00:31:21;;;;;;;3.22;2.40;;;;;;;;;;6224033;28;20585;-74
2021/09/21 00:34:26;;;;;;;4.95;2.50;;;;;;;;;;6238014;28;20167;-74
2021/09/21 00:37:28;;;;;;;5.30;2.38;;;;;;;;;;6234911;28;20041;-74
2021/09/21 00:40:30;;;;;;;6.00;2.78;;;;;;;;;;6235459;28;20128;-74
2021/09/21 00:43:32;;;;;;;5.80;2.72;;;;;;;;;;6239817;28;20050;-74
2021/09/21 00:46:35;;;;;;;4.97;3.00;;;;;;;;;;6230995;28;20547;-74
2021/09/21 00:49:37;;;;;;;5.03;2.83;;;;;;;;;;6236422;28;20054;-74
2021/09/21 00:52:39;;;;;;;6.72;2.65;;;;;;;;;;6232847;28;20050;-74
2021/09/21 00:55:40;;;;;;;4.97;2.45;;;;;;;;;;6232018;28;20827;-74
2021/09/21 00:58:42;;;;;;;5.60;2.47;;;;;;;;;;6246233;28;20129;-73
2021/09/21 01:01:45;;;;;;;4.38;2.22;;;;;;;;;;6232077;28;20136;-74
2021/09/21 01:04:46;;;;;;;5.33;2.60;;;;;;;;;;6238827;28;20191;-74
2021/09/21 01:07:48;;;;;;;4.35;2.20;;;;;;;;;;6230681;28;21018;-73
2021/09/21 01:10:50;;;;;;;3.70;2.47;;;;;;;;;;6234645;28;20095;-74
2021/09/21 01:13:51;;;;;;;4.90;2.30;;;;;;;;;;6242420;28;20071;-74
2021/09/21 01:16:56;;;;;;;3.10;2.10;;;;;;;;;;6226627;28;20045;-74
2021/09/21 01:19:58;;;;;;;5.60;2.38;;;;;;;;;;6236543;28;20184;-74
2021/09/21 01:23:04;;;;;;;3.35;1.90;;;;;;;;;;6228524;28;20501;-74
2021/09/21 01:26:05;;;;;;;3.95;2.10;;;;;;;;;;6221793;28;21372;-74
2021/09/21 01:29:07;;;;;;;3.28;1.70;;;;;;;;;;6243203;28;20140;-74
2021/09/21 01:32:09;;;;;;;3.47;1.60;;;;;;;;;;6234406;28;20132;-74
2021/09/21 01:35:12;;;;;;;2.15;1.63;;;;;;;;;;6238784;28;20193;-74
2021/09/21 01:38:14;;;;;;;1.92;1.35;;;;;;;;;;6234230;28;20061;-74
2021/09/21 01:41:16;;;;;;;3.13;1.45;;;;;;;;;;6235242;28;20128;-74
2021/09/21 01:44:19;;;;;;;1.85;1.30;;;;;;;;;;6246398;28;20041;-74
2021/09/21 01:47:21;;;;;;;3.45;1.30;;;;;;;;;;6227106;28;20128;-74
2021/09/21 01:50:32;;;;;;;1.40;1.00;;;;;;;;;;6237950;28;20056;-74
2021/09/21 01:53:41;;;;;;;1.67;1.25;;;;;;;;;;6229191;28;20049;-74
2021/09/21 02:00:03;;;;;;;3.28;1.55;;;;;;;;;;6240691;28;20050;-74
2021/09/21 02:03:05;;;;;;;4.60;1.33;;;;;;;;;;6227883;28;20049;-73
2021/09/21 02:06:07;;;;;;;2.40;1.20;;;;;;;;;;6231069;28;20136;-74
2021/09/21 02:09:11;;;;;;;1.70;1.25;;;;;;;;;;6240787;28;20055;-73
2021/09/21 02:12:13;;;;;;;1.65;1.10;;;;;;;;;;6236827;28;20095;-74
2021/09/21 02:15:15;;;;;;;2.13;1.63;;;;;;;;;;6241919;28;20042;-74
2021/09/21 02:18:16;;;;;;;2.30;1.70;;;;;;;;;;6236917;28;20099;-74
2021/09/21 02:21:18;;;;;;;1.98;1.30;;;;;;;;;;6235448;28;20041;-74
2021/09/21 02:24:22;;;;;;;2.25;1.65;;;;;;;;;;6243112;28;20096;-74
2021/09/21 02:27:25;;;;;;;1.92;1.50;;;;;;;;;;6230508;28;20045;-74
2021/09/21 02:30:27;;;;;;;2.20;1.40;;;;;;;;;;6212398;28;20042;-74
2021/09/21 02:33:29;;;;;;;2.20;1.48;;;;;;;;;;6214900;28;20081;-73
2021/09/21 02:36:31;;;;;;;2.13;1.50;;;;;;;;;;6230783;28;20049;-73
2021/09/21 02:39:34;;;;;;;2.00;1.70;;;;;;;;;;6237621;28;20069;-74
2021/09/21 02:42:36;;;;;;;4.60;1.60;;;;;;;;;;6234455;28;20056;-74
2021/09/21 02:45:37;;;;;;;2.63;1.70;;;;;;;;;;6231390;28;20191;-74
2021/09/21 02:48:39;;;;;;;3.22;1.75;;;;;;;;;;6234136;28;20033;-74
2021/09/21 02:51:41;;;;;;;2.58;1.77;;;;;;;;;;6235308;28;20068;-74
2021/09/21 02:54:44;;;;;;;2.63;1.73;;;;;;;;;;6238219;28;20557;-74
2021/09/21 02:57:46;;;;;;;3.87;1.83;;;;;;;;;;6230152;28;20128;-74
2021/09/21 03:00:51;;;;;;;3.20;1.60;;;;;;;;;;6231076;28;20132;-74
2021/09/21 03:03:55;;;;;;;1.95;1.67;;;;;;;;;;6234047;28;20071;-74
2021/09/21 03:07:03;;;;;;;3.10;1.67;;;;;;;;;;6231457;28;20057;-74
2021/09/21 03:10:22;;;;;;;3.38;1.63;;;;;;;;;;6243336;28;20041;-74
2021/09/21 03:13:41;;;;;;;6.90;1.70;;;;;;;;;;6216439;28;20046;-73
2021/09/21 03:20:03;;;;;;;3.65;1.90;;;;;;;;;;6210977;28;20474;-74
2021/09/21 03:23:05;;;;;;;2.85;1.85;;;;;;;;;;6206026;28;20054;-74
2021/09/21 03:26:08;;;;;;;4.47;2.58;;;;;;;;;;6208857;28;20102;-74
2021/09/21 03:29:10;;;;;;;3.17;2.17;;;;;;;;;;6220139;28;20402;-73
2021/09/21 03:32:12;;;;;;;3.70;2.40;;;;;;;;;;6203721;28;20137;-73
2021/09/21 03:35:13;;;;;;;6.65;2.55;;;;;;;;;;6208323;28;20402;-74
2021/09/21 03:38:15;;;;;;;3.88;2.58;;;;;;;;;;6222687;28;20563;-73
2021/09/21 03:41:18;;;;;;;3.75;2.70;;;;;;;;;;6233277;28;20052;-74
2021/09/21 03:44:19;;;;;;;4.90;2.40;;;;;;;;;;6237705;28;20061;-74
2021/09/21 03:47:21;;;;;;;5.82;2.47;;;;;;;;;;6230962;28;20474;-74
2021/09/21 03:50:23;;;;;;;4.30;2.22;;;;;;;;;;6225868;28;20049;-74
2021/09/21 03:53:24;;;;;;;3.72;2.13;;;;;;;;;;6234925;28;20045;-74
2021/09/21 03:56:27;;;;;;;3.08;2.42;;;;;;;;;;6232385;28;20507;-73
2021/09/21 03:59:29;;;;;;;8.02;2.80;;;;;;;;;;6239442;28;20099;-74
2021/09/21 04:02:30;;;;;;;4.68;2.60;;;;;;;;;;6229350;28;20448;-74
2021/09/21 04:05:32;;;;;;;4.30;2.65;;;;;;;;;;6210807;28;20046;-74
2021/09/21 04:08:34;;;;;;;4.18;2.50;;;;;;;;;;6220991;28;20389;-74
2021/09/21 04:11:37;;;;;;;5.47;2.67;;;;;;;;;;6233208;28;20037;-73
2021/09/21 04:14:38;;;;;;;3.10;2.53;;;;;;;;;;6239477;28;20049;-74
2021/09/21 04:17:40;;;;;;;3.20;2.10;;;;;;;;;;6232264;28;20202;-73
2021/09/21 04:20:41;;;;;;;4.78;3.00;;;;;;;;;;6232676;28;20163;-74
2021/09/21 04:23:43;;;;;;;3.38;2.10;;;;;;;;;;6244492;28;20037;-73
2021/09/21 04:26:46;;;;;;;4.55;2.35;;;;;;;;;;6235749;28;20474;-73
2021/09/21 04:29:50;;;;;;;5.00;2.78;;;;;;;;;;6251965;28;20069;-73
2021/09/21 04:32:53;;;;;;;3.83;2.70;;;;;;;;;;6229251;28;20493;-73
2021/09/21 04:35:54;;;;;;;5.30;2.78;;;;;;;;;;6234091;28;20041;-73
2021/09/21 04:38:56;;;;;;;4.75;2.75;;;;;;;;;;6243950;28;20046;-73
2021/09/21 04:41:59;;;;;;;4.38;2.92;;;;;;;;;;6237577;28;20041;-73
2021/09/21 04:45:00;;;;;;;3.20;2.50;;;;;;;;;;6238940;28;20061;-73
2021/09/21 04:48:02;;;;;;;4.05;3.10;;;;;;;;;;6229561;28;20091;-74
2021/09/21 04:51:04;;;;;;;5.07;3.40;;;;;;;;;;6231786;28;20041;-73
2021/09/21 04:54:06;;;;;;;6.65;3.15;;;;;;;;;;6237068;28;20473;-73
2021/09/21 04:57:09;;;;;;;6.38;3.20;;;;;;;;;;6234465;28;20391;-74
2021/09/21 05:00:11;;;;;;;6.33;3.73;;;;;;;;;;6242937;28;20136;-75
2021/09/21 05:03:13;;;;;;;5.60;3.22;;;;;;;;;;6238446;28;20404;-74
2021/09/21 05:06:14;;;;;;;7.47;3.45;;;;;;;;;;6231461;28;20386;-72
2021/09/21 05:09:16;;;;;;;3.35;3.05;;;;;;;;;;6242838;28;20140;-73
2021/09/21 05:12:19;;;;;;;4.82;3.45;;;;;;;;;;6238702;28;20172;-72
2021/09/21 05:15:21;;;;;;;5.07;3.42;;;;;;;;;;6236996;28;20076;-72
2021/09/21 05:18:23;;;;;;;4.95;3.20;;;;;;;;;;6236664;28;20141;-73
2021/09/21 05:21:24;;;;;;;4.60;3.53;;;;;;;;;;6233404;28;20045;-73
2021/09/21 05:24:26;;;;;;;4.80;3.63;;;;;;;;;;6230211;28;20462;-73
2021/09/21 05:27:29;;;;;;;4.15;2.88;;;;;;;;;;6220664;28;20055;-73
2021/09/21 05:30:30;;;;;;;5.60;3.77;;;;;;;;;;6238942;28;20132;-73
2021/09/21 05:33:32;;;;;;;5.32;3.72;;;;;;;;;;6236344;28;20045;-73
2021/09/21 05:36:33;;;;;;;5.35;3.53;;;;;;;;;;6236571;28;20394;-73
2021/09/21 05:39:35;;;;;;;5.82;3.80;;;;;;;;;;6241850;28;20095;-72
2021/09/21 05:42:38;;;;;;;5.15;3.50;;;;;;;;;;6236744;28;20049;-74
2021/09/21 05:45:40;;;;;;;4.38;3.67;;;;;;;;;;6236659;28;20053;-74
2021/09/21 05:48:41;;;;;;;4.85;3.83;;;;;;;;;;6222118;28;20052;-73
2021/09/21 05:51:43;;;;;;;5.95;3.70;;;;;;;;;;6215418;28;20061;-74
2021/09/21 05:54:45;;;;;;;5.45;4.28;;;;;;;;;;6216569;28;20481;-74
2021/09/21 05:57:48;;;;;;;7.20;3.80;;;;;;;;;;6244009;28;20132;-74
2021/09/21 06:00:49;;;;;;;6.22;4.00;;;;;;;;;;6225438;28;20472;-73
2021/09/21 06:03:51;;;;;;;5.57;4.10;;;;;;;;;;6232741;28;20042;-73
2021/09/21 06:06:52;;;;;;;6.45;3.88;;;;;;;;;;6233713;28;20144;-74
2021/09/21 06:09:54;;;;;;;5.03;3.65;;;;;;;;;;6237573;28;20045;-73
2021/09/21 06:12:57;;;;;;;8.02;4.00;;;;;;;;;;6230367;28;20440;-73
2021/09/21 06:15:58;;;;;;;4.97;4.27;;;;;;;;;;6235959;28;20128;-74
2021/09/21 06:19:00;;;;;;;7.15;3.95;;;;;;;;;;6230859;28;20050;-74
2021/09/21 06:22:02;;;;;;;5.63;3.72;;;;;;;;;;6237914;28;20063;-74
2021/09/21 06:25:04;;;;;;;5.07;3.88;;;;;;;;;;6237293;28;20037;-73
2021/09/21 06:28:07;;;;;;;6.20;3.75;;;;;;;;;;6234179;28;20045;-73
2021/09/21 06:31:10;;;;;;;6.50;3.60;;;;;;;;;;6228565;28;20049;-74
2021/09/21 06:34:11;;;;;;;5.60;3.80;;;;;;;;;;6235876;28;20057;-74
2021/09/21 06:37:14;;;;;;;5.95;4.03;;;;;;;;;;6232832;28;20050;-74
2021/09/21 06:40:16;;;;;;;5.68;4.30;;;;;;;;;;6222484;28;20391;-74
2021/09/21 06:43:19;;;;;;;6.00;3.92;;;;;;;;;;6216409;28;20054;-74
2021/09/21 06:46:21;;;;;;;8.40;4.00;;;;;;;;;;6203423;28;20092;-74
2021/09/21 06:49:24;;;;;;;5.80;4.38;;;;;;;;;;6208104;28;20064;-74
2021/09/21 06:52:25;;;;;;;5.63;4.00;;;;;;;;;;6206431;28;20434;-74
2021/09/21 06:55:27;;;;;;;5.38;4.07;;;;;;;;;;6214557;28;20049;-74
2021/09/21 06:58:33;;;;;;;5.28;3.67;;;;;;;;;;6234518;28;20049;-74
2021/09/21 07:01:34;;;;;;;7.15;4.38;;;;;;;;;;6228140;28;20581;-74
2021/09/21 07:04:36;;;;;;;5.65;3.55;;;;;;;;;;6231592;28;20481;-74
2021/09/21 07:07:42;;;;;;;5.57;3.72;;;;;;;;;;6231387;28;21546;-74
2021/09/21 07:10:43;;;;;;;4.30;3.33;;;;;;;;;;6230909;28;20471;-74
2021/09/21 07:13:46;;;;;;;5.60;3.88;;;;;;;;;;6239572;28;20378;-74
2021/09/21 07:16:49;;;;;;;6.53;4.23;;;;;;;;;;6227759;28;20060;-74
2021/09/21 07:19:50;;;;;;;8.55;3.42;;;;;;;;;;6235522;28;20097;-74
2021/09/21 07:22:53;;;;;;;4.25;3.80;;;;;;;;;;6232991;28;20529;-74
2021/09/21 07:25:54;;;;;;;4.97;3.80;;;;;;;;;;6229583;28;20697;-74
2021/09/21 07:28:57;;;;;;;5.05;3.78;;;;;;;;;;6239610;28;20061;-74
2021/09/21 07:31:59;;;;;;;5.07;3.57;;;;;;;;;;6213878;28;20177;-73
2021/09/21 07:35:00;;;;;;;6.20;3.85;;;;;;;;;;6229749;28;20057;-73
2021/09/21 07:38:02;;;;;;;4.53;3.65;;;;;;;;;;6234643;28;20045;-74
2021/09/21 07:41:04;;;;;;;5.25;3.60;;;;;;;;;;6235734;28;20120;-74
2021/09/21 07:44:07;;;;;;;5.25;3.83;;;;;;;;;;6248528;28;20139;-74
2021/09/21 07:47:09;;;;;;;5.27;3.20;;;;;;;;;;6227806;28;20076;-74
2021/09/21 07:50:11;;;;;;;5.10;3.22;;;;;;;;;;6233825;28;20124;-74
2021/09/21 07:53:13;;;;;;;5.47;3.20;;;;;;;;;;6236193;28;20042;-74
2021/09/21 07:56:15;;;;;;;4.13;3.28;;;;;;;;;;6235360;28;20478;-74
2021/09/21 07:59:18;;;;;;;4.28;2.95;;;;;;;;;;6239578;28;20045;-74
2021/09/21 08:02:20;;;;;;;6.10;3.42;;;;;;;;;;6230237;28;20478;-74
2021/09/21 08:05:21;;;;;;;5.93;3.13;;;;;;;;;;6219578;28;20419;-73
2021/09/21 08:08:23;;;;;;;3.88;3.20;;;;;;;;;;6241653;28;20061;-73
2021/09/21 08:11:26;;;;;;;4.10;3.05;;;;;;;;;;6220468;28;20041;-73
2021/09/21 08:14:36;;;;;;;3.78;2.70;;;;;;;;;;6242819;28;20114;-73
2021/09/21 08:17:37;;;;;;;3.65;2.67;;;;;;;;;;6229173;28;20057;-74
2021/09/21 08:20:39;;;;;;;4.47;3.10;;;;;;;;;;6235697;28;20942;-74
2021/09/21 08:23:41;;;;;;;3.88;3.20;;;;;;;;;;6242356;28;20057;-74
2021/09/21 08:26:42;;;;;;;5.28;2.90;;;;;;;;;;6221361;28;20119;-74
2021/09/21 08:29:45;;;;;;;5.18;3.28;;;;;;;;;;6219314;28;20041;-74
2021/09/21 08:32:47;;;;;;;6.75;3.65;;;;;;;;;;6221967;28;20049;-74
2021/09/21 08:35:49;;;;;;;6.22;3.38;;;;;;;;;;6238689;28;20136;-73
2021/09/21 08:38:51;;;;;;;3.45;3.05;;;;;;;;;;6239111;28;20448;-74
2021/09/21 08:41:53;;;;;;;5.97;3.28;;;;;;;;;;6207622;28;20038;-74
2021/09/21 08:44:56;;;;;;;4.32;2.97;;;;;;;;;;6216999;28;20088;-74
2021/09/21 08:47:57;;;;;;;5.47;2.85;;;;;;;;;;6222683;28;20050;-73
2021/09/21 08:50:59;;;;;;;3.60;2.70;;;;;;;;;;6236129;28;20062;-74
2021/09/21 08:54:01;;;;;;;5.15;2.70;;;;;;;;;;6238458;28;20443;-73
2021/09/21 08:57:03;;;;;;;4.13;2.58;;;;;;;;;;6242371;28;20132;-74
2021/09/21 09:00:08;;;;;;;4.15;2.55;;;;;;;;;;6240210;28;20046;-74
2021/09/21 09:03:11;;;;;;;4.35;2.95;;;;;;;;;;6232209;28;20056;-74
2021/09/21 09:06:13;;;;;;;3.50;2.50;;;;;;;;;;6238329;28;20405;-74
2021/09/21 09:09:16;;;;;;;4.93;3.10;;;;;;;;;;6219327;28;20084;-74
2021/09/21 09:12:29;;;;;;;5.97;2.80;;;;;;;;;;6207081;28;20510;-74
2021/09/21 09:15:32;;;;;;;4.22;2.72;;;;;;;;;;6234661;28;20560;-74
2021/09/21 09:18:34;;;;;;;3.88;2.88;;;;;;;;;;6239485;28;20169;-74
2021/09/21 09:21:38;;;;;;;4.00;2.70;;;;;;;;;;6232917;28;20045;-74
2021/09/21 09:24:48;;;;;;;4.90;3.00;;;;;;;;;;6235919;28;20049;-74
2021/09/21 09:27:50;;;;;;;3.88;2.83;;;;;;;;;;6239614;28;20045;-74
2021/09/21 09:30:55;;;;;;;4.35;3.30;;;;;;;;;;6237218;28;20132;-74
2021/09/21 09:34:08;;;;;;;5.07;3.40;;;;;;;;;;6225615;28;20044;-74
2021/09/21 09:37:10;;;;;;;5.10;3.30;;;;;;;;;;6208569;28;20119;-74
2021/09/21 09:40:12;;;;;;;6.28;3.00;;;;;;;;;;6223981;28;20053;-74
2021/09/21 09:43:15;;;;;;;4.80;3.35;;;;;;;;;;6234421;28;20045;-74
2021/09/21 09:46:19;;;;;;;4.03;3.13;;;;;;;;;;6211109;28;20061;-74
2021/09/21 09:49:22;;;;;;;4.20;3.17;;;;;;;;;;6240050;28;20049;-74
2021/09/21 09:52:24;;;;;;;5.60;2.80;;;;;;;;;;6240448;28;20124;-74
2021/09/21 09:55:28;;;;;;;3.20;2.50;;;;;;;;;;6240085;28;20268;-74
2021/09/21 09:58:30;;;;;;;2.42;2.08;;;;;;;;;;6237154;28;20053;-74
2021/09/21 10:01:33;;;;;;;3.80;2.20;;;;;;;;;;6231658;28;20517;-74
2021/09/21 10:04:34;;;;;;;;;;;;;;;;;;6242372;28;20053;-74
2021/09/21 10:07:37;;;;;;;3.53;2.50;;;;;;;;;;6231714;28;19921;-74
2021/09/21 10:10:42;;;;;;;3.75;2.47;;;;;;;;;;6236960;28;20426;-74
2021/09/21 10:13:45;;;;;;;2.75;2.13;;;;;;;;;;6237621;28;20073;-74
2021/09/21 10:16:54;;;;;;;4.10;2.70;;;;;;;;;;6224873;28;20658;-74
2021/09/21 10:19:56;;;;;;;3.38;2.30;;;;;;;;;;6227629;28;20103;-74
2021/09/21 10:22:58;;;;;;;2.58;2.28;;;;;;;;;;6201732;28;20413;-74
2021/09/21 10:26:24;;;;;;;3.40;2.50;;;;;;;;;;6210303;28;20049;-74
2021/09/21 10:29:27;;;;;;;4.95;2.40;;;;;;;;;;6203490;28;20398;-74
2021/09/21 10:32:32;;;;;;;5.00;2.60;;;;;;;;;;6223415;28;20390;-74
2021/09/21 10:35:36;;;;;;;3.60;2.85;;;;;;;;;;6232038;28;20101;-74
2021/09/21 10:38:40;;;;;;;5.97;2.97;;;;;;;;;;6234253;28;21378;-74
2021/09/21 10:41:48;;;;;;;3.70;1.92;;;;;;;;;;6235190;28;20489;-74
2021/09/21 10:44:56;;;;;;;3.47;2.30;;;;;;;;;;6239391;28;20133;-74
2021/09/21 10:48:05;;;;;;;2.72;2.30;;;;;;;;;;6228528;28;20049;-74
2021/09/21 10:51:09;;;;;;;3.42;2.20;;;;;;;;;;6227548;28;20045;-74
2021/09/21 10:54:15;;;;;;;2.70;2.22;;;;;;;;;;6236265;28;20043;-74
2021/09/21 10:57:19;;;;;;;3.60;2.03;;;;;;;;;;6223718;28;20128;-74
2021/09/21 11:00:21;;;;;;;2.60;2.33;;;;;;;;;;6217738;28;20141;-74
2021/09/21 11:03:26;;;;;;;3.97;2.75;;;;;;;;;;6212072;28;20120;-74
2021/09/21 11:06:28;;;;;;;2.38;2.10;;;;;;;;;;6230203;28;20155;-74
2021/09/21 11:09:29;;;;;;;;;;;;;;;;;;6238706;28;20041;-74
2021/09/21 11:12:31;;;;;;;3.67;2.33;;;;;;;;;;6230790;28;19929;-74
2021/09/21 11:15:33;;;;;;;3.10;2.70;;;;;;;;;;6235059;28;20087;-74
2021/09/21 11:18:36;;;;;;;5.65;3.10;;;;;;;;;;6232958;28;20195;-74
2021/09/21 11:21:38;;;;;;;4.97;3.20;;;;;;;;;;6231535;28;20053;-74
2021/09/21 11:24:40;;;;;;;3.33;2.90;;;;;;;;;;6237439;28;20176;-74
2021/09/21 11:27:42;;;;;;;;;;;;;;;;;;6227877;28;20065;-73
2021/09/21 11:30:44;;;;;;;3.30;3.00;;;;;;;;;;6230579;28;20370;-74
2021/09/21 11:33:48;;;;;;;3.38;3.08;;;;;;;;;;6221691;28;20123;-74
2021/09/21 11:36:50;;;;;;;2.67;2.47;;;;;;;;;;6228907;28;20050;-74
2021/09/21 11:39:52;;;;;;;3.05;2.75;;;;;;;;;;6231099;28;20073;-73
2021/09/21 11:42:54;;;;;;;2.95;2.17;;;;;;;;;;6222020;28;20066;-74
2021/09/21 11:45:56;;;;;;;3.03;2.72;;;;;;;;;;6224419;28;20510;-74
2021/09/21 11:49:00;;;;;;;2.63;2.25;;;;;;;;;;6235116;28;20563;-74
2021/09/21 11:52:04;;;;;;;2.30;2.10;;;;;;;;;;6203739;28;20098;-73
2021/09/21 11:55:11;;;;;;;3.35;3.05;;;;;;;;;;6228353;28;20332;-73
2021/09/21 11:58:14;;;;;;;2.95;2.20;;;;;;;;;;6237654;28;20065;-73
2021/09/21 12:01:16;;;;;;;2.40;2.10;;;;;;;;;;6206244;28;20456;-73
2021/09/21 12:04:19;;;;;;;3.47;2.30;;;;;;;;;;6209775;28;20046;-73
2021/09/21 12:07:20;;;;;;;2.85;2.60;;;;;;;;;;6225476;28;20455;-73
2021/09/21 12:10:25;;;;;;;3.55;2.67;;;;;;;;;;6228918;28;20049;-73
2021/09/21 12:13:27;;;;;;;2.67;2.47;;;;;;;;;;6232942;28;20184;-73
2021/09/21 12:16:29;;;;;;;2.22;2.03;;;;;;;;;;6205828;28;20056;-73
2021/09/21 12:19:34;;;;;;;2.83;2.00;;;;;;;;;;6221864;28;20462;-73
2021/09/21 12:22:35;;;;;;;2.33;1.90;;;;;;;;;;6219203;28;20549;-73
2021/09/21 12:25:38;;;;;;;3.92;1.40;;;;;;;;;;6241886;28;20049;-73
2021/09/21 12:28:41;;;;;;;2.53;1.52;;;;;;;;;;6243800;28;20446;-72
2021/09/21 12:31:44;;;;;;;2.83;2.50;;;;;;;;;;6228227;28;20095;-73
2021/09/21 12:34:47;;;;;;;2.85;2.22;;;;;;;;;;6234855;28;20059;-72
2021/09/21 12:37:53;;;;;;;5.15;2.17;;;;;;;;;;6229848;28;20056;-72
2021/09/21 12:40:56;;;;;;;3.35;2.30;;;;;;;;;;6239787;28;20041;-72
2021/09/21 12:43:58;;;;;;;2.58;2.03;;;;;;;;;;6241462;28;20071;-72
2021/09/21 12:47:00;;;;;;;1.80;1.70;;;;;;;;;;6231527;28;20070;-72
2021/09/21 12:50:06;;;;;;;2.20;1.95;;;;;;;;;;6222458;28;20128;-71
2021/09/21 12:53:07;;;;;;;2.08;1.63;;;;;;;;;;6214041;28;20436;-72
2021/09/21 12:56:10;;;;;;;4.20;2.22;;;;;;;;;;6228056;28;20383;-71
2021/09/21 12:59:13;;;;;;;3.92;1.80;;;;;;;;;;6242005;28;20042;-71
2021/09/21 13:02:15;;;;;;;4.65;2.92;;;;;;;;;;6217570;28;20379;-72
2021/09/21 13:05:18;;;;;;;3.23;2.57;;;;;;;;;;6226536;28;20085;-73
2021/09/21 13:08:19;;;;;;;4.13;2.30;;;;;;;;;;6234128;28;20612;-70
2021/09/21 13:11:21;;;;;;;2.53;1.83;;;;;;;;;;6238154;28;20112;-72
2021/09/21 13:14:23;;;;;;;3.17;2.23;;;;;;;;;;6230964;28;20185;-72
2021/09/21 13:17:24;;;;;;;3.40;2.30;;;;;;;;;;6221790;28;20497;-72
2021/09/21 13:20:29;;;;;;;4.93;2.20;;;;;;;;;;6231974;28;20132;-72
2021/09/21 13:23:30;;;;;;;3.78;1.98;;;;;;;;;;6219782;28;20061;-71
2021/09/21 13:26:32;;;;;;;2.63;1.90;;;;;;;;;;6235255;28;20509;-71
2021/09/21 13:29:33;;;;;;;3.80;1.85;;;;;;;;;;6242839;28;20049;-68
2021/09/21 13:32:35;;;;;;;1.73;1.60;;;;;;;;;;6224701;28;20061;-69
2021/09/21 13:35:38;;;;;;;1.67;1.50;;;;;;;;;;6234735;28;20140;-69
2021/09/21 13:38:40;;;;;;;2.10;1.67;;;;;;;;;;6224161;28;20757;-67
2021/09/21 13:41:41;;;;;;;4.10;2.00;;;;;;;;;;6204967;28;20125;-69
2021/09/21 13:44:43;;;;;;;3.73;2.13;;;;;;;;;;6215753;28;20057;-68
2021/09/21 13:47:45;;;;;;;2.15;1.85;;;;;;;;;;6204009;28;20149;-69
2021/09/21 13:50:48;;;;;;;2.00;1.80;;;;;;;;;;6222703;28;20429;-70
2021/09/21 13:53:50;;;;;;;2.38;1.85;;;;;;;;;;6240046;28;20475;-70
2021/09/21 13:56:51;;;;;;;2.65;1.92;;;;;;;;;;6232859;28;20088;-70
2021/09/21 13:59:53;;;;;;;2.13;1.70;;;;;;;;;;6231353;28;20434;-69
2021/09/21 14:02:55;;;;;;;3.23;2.93;;;;;;;;;;6203226;28;20402;-70
2021/09/21 14:05:58;;;;;;;2.15;1.90;;;;;;;;;;6201113;28;20111;-70
2021/09/21 14:09:00;;;;;;;2.00;1.65;;;;;;;;;;6231502;28;20148;-70
2021/09/21 14:12:01;;;;;;;4.43;2.00;;;;;;;;;;6237196;28;20053;-69
2021/09/21 14:15:04;;;;;;;4.43;2.70;;;;;;;;;;6239249;28;20107;-68
2021/09/21 14:18:06;;;;;;;2.72;2.40;;;;;;;;;;6231635;28;20057;-69
2021/09/21 14:21:09;;;;;;;2.05;1.77;;;;;;;;;;6230632;28;20049;-69
2021/09/21 14:24:11;;;;;;;2.47;1.95;;;;;;;;;;6237483;28;20136;-69
2021/09/21 14:27:13;;;;;;;2.00;1.70;;;;;;;;;;6232454;28;20045;-70
2021/09/21 14:30:17;;;;;;;4.03;2.00;;;;;;;;;;6232156;28;20128;-69
2021/09/21 14:33:18;;;;;;;2.90;1.80;;;;;;;;;;6233270;28;20521;-70
2021/09/21 14:36:22;;;;;;;3.85;2.30;;;;;;;;;;6231721;28;20183;-70
2021/09/21 14:39:25;;;;;;;4.10;2.25;;;;;;;;;;6238710;28;20037;-69
2021/09/21 14:42:27;;;;;;;2.45;1.88;;;;;;;;;;6234634;28;20045;-69
2021/09/21 14:45:28;;;;;;;4.10;2.67;;;;;;;;;;6218319;28;20037;-70
2021/09/21 14:48:30;;;;;;;3.07;2.77;;;;;;;;;;6234440;28;20123;-70
2021/09/21 14:51:33;;;;;;;2.97;2.57;;;;;;;;;;6228947;28;20142;-71
2021/09/21 14:54:34;;;;;;;2.92;2.30;;;;;;;;;;6241807;28;20499;-69
2021/09/21 14:57:36;;;;;;;5.37;2.23;;;;;;;;;;6231304;28;20073;-70
2021/09/21 15:00:38;;;;;;;2.27;2.07;;;;;;;;;;6228639;28;20109;-70
2021/09/21 15:03:40;;;;;;;2.40;2.20;;;;;;;;;;6233265;28;20048;-70
2021/09/21 15:06:43;;;;;;;2.85;2.40;;;;;;;;;;6231479;28;20614;-69
2021/09/21 15:09:45;;;;;;;2.83;2.20;;;;;;;;;;6237586;28;20053;-69
2021/09/21 15:12:46;;;;;;;2.10;1.90;;;;;;;;;;6229381;28;20049;-69
2021/09/21 15:15:48;;;;;;;4.05;2.15;;;;;;;;;;6225736;28;20045;-70
2021/09/21 15:18:49;;;;;;;2.60;1.97;;;;;;;;;;6216058;28;20195;-70
2021/09/21 15:21:52;;;;;;;2.80;1.80;;;;;;;;;;6204057;28;20794;-70
2021/09/21 15:24:54;;;;;;;2.85;2.00;;;;;;;;;;6211073;28;20172;-70
2021/09/21 15:27:56;;;;;;;2.90;1.77;;;;;;;;;;6207036;28;20049;-69
2021/09/21 15:30:57;;;;;;;2.97;1.77;;;;;;;;;;6206328;28;20089;-70
2021/09/21 15:33:59;;;;;;;1.95;1.55;;;;;;;;;;6224781;28;20046;-70
2021/09/21 15:37:03;;;;;;;2.38;1.85;;;;;;;;;;6204716;28;20049;-69
2021/09/21 15:40:07;;;;;;;2.45;1.80;;;;;;;;;;6213627;28;20318;-71
2021/09/21 15:43:09;;;;;;;3.50;1.80;;;;;;;;;;6209664;28;20076;-70
2021/09/21 15:46:11;;;;;;;2.53;1.80;;;;;;;;;;6201273;28;20132;-69
2021/09/21 15:49:13;;;;;;;2.95;1.63;;;;;;;;;;6209318;28;20041;-69
2021/09/21 15:52:16;;;;;;;3.08;2.17;;;;;;;;;;6205481;28;20061;-70
2021/09/21 15:55:19;;;;;;;2.33;2.10;;;;;;;;;;6233612;28;20509;-71
2021/09/21 15:58:21;;;;;;;4.65;2.20;;;;;;;;;;6241450;28;20413;-71
2021/09/21 16:01:22;;;;;;;2.65;2.22;;;;;;;;;;6222966;28;20248;-70
2021/09/21 16:04:24;;;;;;;4.22;2.50;;;;;;;;;;6214798;28;20056;-70
2021/09/21 16:07:27;;;;;;;2.85;2.60;;;;;;;;;;6229841;28;20101;-71
2021/09/21 16:10:31;;;;;;;3.88;2.60;;;;;;;;;;6237509;28;20069;-70
2021/09/21 16:13:33;;;;;;;4.10;2.45;;;;;;;;;;6237836;28;20049;-70
2021/09/21 16:16:35;;;;;;;3.83;3.35;;;;;;;;;;6202501;28;20053;-70
2021/09/21 16:19:37;;;;;;;3.72;3.17;;;;;;;;;;6218321;28;20124;-70
2021/09/21 16:22:41;;;;;;;6.63;2.83;;;;;;;;;;6225739;28;20064;-69
2021/09/21 16:25:44;;;;;;;3.70;3.30;;;;;;;;;;6237526;28;20033;-70
2021/09/21 16:28:46;;;;;;;6.32;3.70;;;;;;;;;;6245149;28;20368;-71
2021/09/21 16:31:49;;;;;;;3.47;3.13;;;;;;;;;;6227038;28;20122;-69
2021/09/21 16:34:50;;;;;;;3.67;3.38;;;;;;;;;;6240993;28;20050;-70
2021/09/21 16:37:56;;;;;;;3.78;3.47;;;;;;;;;;6217039;28;20208;-71
2021/09/21 16:40:57;;;;;;;4.13;3.55;;;;;;;;;;6231197;28;20046;-72
2021/09/21 16:43:59;;;;;;;4.20;3.35;;;;;;;;;;6241906;28;20067;-70
2021/09/21 16:47:01;;;;;;;5.03;3.20;;;;;;;;;;6227571;28;20549;-69
2021/09/21 16:50:04;;;;;;;4.60;4.20;;;;;;;;;;6226725;28;20184;-68
2021/09/21 16:53:07;;;;;;;;;;;;;;;;;;6206401;28;20069;-68
2021/09/21 16:56:09;;;;;;;5.95;3.40;;;;;;;;;;6216264;28;20049;-68
2021/09/21 16:59:10;;;;;;;5.20;3.50;;;;;;;;;;6241078;28;20128;-68
2021/09/21 17:02:12;;;;;;;4.28;3.20;;;;;;;;;;6225755;28;20114;-68
2021/09/21 17:05:18;;;;;;;4.03;3.13;;;;;;;;;;6231851;28;20112;-68
2021/09/21 17:08:22;;;;;;;7.32;3.20;;;;;;;;;;6224318;28;20049;-68
2021/09/21 17:11:26;;;;;;;5.75;3.38;;;;;;;;;;6233880;28;20545;-68
2021/09/21 17:14:27;;;;;;;4.85;3.30;;;;;;;;;;6240139;28;20595;-68
2021/09/21 17:17:29;;;;;;;3.70;3.40;;;;;;;;;;6205512;28;20562;-68
2021/09/21 17:20:31;;;;;;;4.13;2.85;;;;;;;;;;6217198;28;20042;-68
2021/09/21 17:23:34;;;;;;;4.93;3.00;;;;;;;;;;6238175;28;20176;-68
2021/09/21 17:26:35;;;;;;;4.40;3.30;;;;;;;;;;6233031;28;20187;-68
2021/09/21 17:29:37;;;;;;;9.15;3.30;;;;;;;;;;6240900;28;20054;-67
2021/09/21 17:32:39;;;;;;;4.13;3.22;;;;;;;;;;6209159;28;20054;-67
2021/09/21 17:35:41;;;;;;;4.25;3.05;;;;;;;;;;6229436;28;20511;-68
2021/09/21 17:38:44;;;;;;;5.00;3.20;;;;;;;;;;6240976;28;20069;-68
2021/09/21 17:41:47;;;;;;;5.53;3.25;;;;;;;;;;6225186;28;20060;-68
2021/09/21 17:44:48;;;;;;;5.00;3.60;;;;;;;;;;6240951;28;20148;-68
2021/09/21 17:47:50;;;;;;;5.22;3.45;;;;;;;;;;6223443;28;20172;-68
2021/09/21 17:50:52;;;;;;;3.47;3.17;;;;;;;;;;6225803;28;20113;-68
2021/09/21 17:53:55;;;;;;;5.03;2.92;;;;;;;;;;6232662;28;20045;-68
2021/09/21 17:56:57;;;;;;;5.65;3.20;;;;;;;;;;6229778;28;20195;-68
2021/09/21 17:59:58;;;;;;;4.18;3.22;;;;;;;;;;6231833;28;20057;-68
2021/09/21 18:03:00;;;;;;;5.50;2.90;;;;;;;;;;6221720;28;20124;-68
2021/09/21 18:06:04;;;;;;;5.60;2.83;;;;;;;;;;6223999;28;20191;-68
2021/09/21 18:09:10;;;;;;;5.80;3.53;;;;;;;;;;6236385;28;20061;-68
2021/09/21 18:12:11;;;;;;;5.30;3.53;;;;;;;;;;6226898;28;20188;-68
2021/09/21 18:15:24;;;;;;;8.00;4.38;;;;;;;;;;6230261;28;20306;-67
2021/09/21 18:19:08;;;;;;;9.40;6.28;;;;;;;;;;6225667;28;20125;-69
2021/09/21 18:23:09;;;;;;;5.38;4.43;;;;;;;;;;6215282;28;20081;-68